Station TCMW1 - 9446482 - Tacoma Met, WA Image indicating link to RSS feed of recent meteorological observations for station TCMW1


Conditions at TCMW1 as of
(9:48 pm PDT on 06/13/2024)
0448 GMT on 06/14/2024:
     

Click on the graph icon in the table below to see a time series plot of the last five days of that observation.

5-day plot - Wind Direction Wind Direction (WDIR):ENE ( 70 deg true )
5-day plot - Wind Speed Wind Speed (WSPD): 1.9 kts
5-day plot - Wind Gust Wind Gust (GST): 5.1 kts
5-day plot - Air Temperature Air Temperature (ATMP): 61.2 °F
5-day plot - Wind Speed at 10 Meters Wind Speed at 10 meters (WSPD10M): 1.9 kts
5-day plot - Wind Speed at 20 Meters Wind Speed at 20 meters (WSPD20M): 1.9 kts
5-day plot -  Wind Speed, Wind Gust and Atmospheric Pressure Combined plot of Wind Speed, Gust, and Air Pressure
NOS Water Level Observation Network Water Level
Previous observations
TIME
(PDT)
5-day plot - Wind Direction
WDIR
 
5-day plot - Wind Speed
WSPD
kts
5-day plot - Wind Gust
GST
kts
5-day plot - Wave Height
WVHT
ft
5-day plot - Dominant Wave Period
DPD
sec
5-day plot - Average Wave Period
APD
sec
5-day plot - Mean Wave Direction
MWD
 
5-day plot - Atmospheric Pressure
PRES
in
5-day plot - Pressure Tendency
PTDY
in
5-day plot - Air Temperature
ATMP
°F
5-day plot - Water Temperature
WTMP
°F
5-day plot - Dew Point
DEWP
°F
5-day plot - Salinity
SAL
psu
5-day plot - Visibility
VIS
nmi
5-day plot - Tide (above MLLW)
TIDE
ft
2024-06-13 09:42 pm- 0.0 7.0------ 61.2-----
2024-06-13 09:36 pmWSW 5.1 9.9------ 61.2-----
2024-06-13 09:30 pmWSW 8.0 12.0------ 61.2-----
2024-06-13 09:24 pmWSW 8.9 12.0------ 61.2-----
2024-06-13 09:18 pmWSW 11.1 15.0------ 61.9-----
2024-06-13 09:12 pmWSW 9.9 12.0------ 62.1-----
2024-06-13 09:06 pmWSW 8.9 12.0------ 62.4-----
2024-06-13 09:00 pm W 12.0 14.0------ 62.4-----
2024-06-13 08:54 pmWSW 8.9 12.0------ 62.6-----
2024-06-13 08:48 pmWSW 8.9 13.0------ 63.0-----
2024-06-13 08:42 pmWSW 12.0 13.0------ 63.5-----
2024-06-13 08:36 pmWSW 7.0 8.9------ 63.5-----
2024-06-13 08:30 pmWSW 6.0 7.0------ 63.5-----
2024-06-13 08:24 pmWSW 7.0 8.9------ 63.9-----
2024-06-13 08:18 pm W 6.0 11.1------ 63.7-----
2024-06-13 08:12 pmWSW 7.0 12.0------ 64.2-----
2024-06-13 08:06 pmWSW 8.9 12.0------ 64.8-----
2024-06-13 08:00 pmWSW 9.9 13.0------ 65.1-----
2024-06-13 07:54 pmWSW 9.9 13.0------ 65.3-----
2024-06-13 07:48 pmWSW 8.9 12.0------ 65.8-----
2024-06-13 07:42 pm SW 8.9 11.1------ 65.5-----
2024-06-13 07:36 pmWSW 8.0 9.9------ 65.8-----
2024-06-13 07:30 pmWSW 7.0 9.9------ 65.8-----
2024-06-13 07:24 pmWSW 6.0 8.9------ 65.1-----
2024-06-13 07:18 pmWSW 7.0 8.9------ 64.9-----
2024-06-13 07:12 pm W 5.1 9.9------ 66.2-----
2024-06-13 07:06 pmWSW 9.9 12.0------ 66.0-----
2024-06-13 07:00 pmWSW 9.9 11.1------ 66.2-----
2024-06-13 06:54 pm W 9.9 11.1------ 66.4-----
2024-06-13 06:48 pmWSW 8.0 9.9------ 65.8-----
2024-06-13 06:42 pm W 8.0 11.1------ 65.1-----
2024-06-13 06:36 pm W 8.9 11.1------ 65.8-----
2024-06-13 06:30 pm W 8.0 12.0------ 65.8-----
2024-06-13 06:24 pmWSW 9.9 14.0------ 66.2-----
2024-06-13 06:18 pm NW 2.9 6.0------ 65.7-----
2024-06-13 06:12 pm NW 2.9 4.1------ 66.0-----
2024-06-13 06:06 pmWNW 1.9 4.1------ 66.0-----
2024-06-13 06:00 pm NW 1.0 6.0------ 66.2-----
2024-06-13 05:54 pm W 6.0 7.0------ 66.4-----
2024-06-13 05:48 pm W 2.9 4.1------ 65.5-----
2024-06-13 05:42 pmWNW 2.9 4.1------ 63.5-----
2024-06-13 05:36 pm N 1.9 2.9------ 65.8-----
2024-06-13 05:30 pmNNW 2.9 4.1------ 65.5-----
2024-06-13 05:24 pm NW 2.9 4.1------ 66.2-----
2024-06-13 05:18 pm N 2.9 2.9------ 66.0-----
2024-06-13 05:12 pmNNW 1.9 2.9------ 66.2-----
2024-06-13 05:06 pm N 2.9 2.9------ 66.0-----
2024-06-13 05:00 pm N 2.9 2.9------ 65.8-----
2024-06-13 04:54 pmNNE 1.9 2.9------ 65.7-----
2024-06-13 04:48 pm N 2.9 2.9------ 65.3-----
2024-06-13 04:42 pm N 2.9 4.1------ 64.9-----
2024-06-13 04:36 pm N 2.9 2.9------ 64.9-----
2024-06-13 04:30 pm N 2.9 4.1------ 64.8-----
2024-06-13 04:24 pm N 2.9 2.9------ 64.8-----
2024-06-13 04:18 pm N 1.9 1.9------ 64.8-----
2024-06-13 04:12 pmNNW 1.9 1.9------ 64.6-----
2024-06-13 04:06 pm N 1.9 1.9------ 64.8-----
2024-06-13 04:00 pm N 1.9 2.9------------
2024-06-13 03:54 pm N 2.9 5.1------------
2024-06-13 03:48 pmNNE 4.1 5.1------------
2024-06-13 03:42 pmNNE 2.9 2.9------------
2024-06-13 03:36 pm N 2.9 2.9------------
2024-06-13 03:30 pm N 2.9 4.1------ 63.0-----
2024-06-13 03:24 pm N 2.9 2.9------ 63.0-----
2024-06-13 03:18 pmNNE 4.1 4.1------ 62.8-----
2024-06-13 03:12 pm N 2.9 2.9------ 62.8-----
2024-06-13 03:06 pmNNW 1.9 2.9------ 62.6-----
2024-06-13 03:00 pmNNW 1.9 1.9------------
2024-06-13 02:54 pmNNW 1.9 1.9------------
2024-06-13 02:48 pmNNW 1.0 1.9------ 62.8-----
2024-06-13 02:42 pmNNW 1.0 1.9------ 62.6-----
2024-06-13 02:36 pm N 1.9 1.9------ 61.7-----
2024-06-13 02:30 pm N 1.9 2.9------ 60.6-----
2024-06-13 02:24 pmNNW 1.9 2.9------ 61.3-----
2024-06-13 02:18 pmNNW 2.9 2.9------------
2024-06-13 02:12 pmWNW 2.9 4.1------------
2024-06-13 02:06 pm W 4.1 5.1------------
2024-06-13 02:00 pm W 5.1 5.1------ 59.7-----
2024-06-13 01:54 pm W 4.1 5.1------ 59.7-----
2024-06-13 01:48 pm W 5.1 7.0------ 60.1-----
2024-06-13 01:42 pm W 6.0 6.0------ 59.2-----
2024-06-13 01:36 pm W 6.0 6.0------ 59.4-----
2024-06-13 01:30 pm W 5.1 6.0------ 59.0-----
2024-06-13 01:24 pm W 6.0 6.0------ 58.6-----
2024-06-13 01:18 pm W 6.0 6.0------------
2024-06-13 01:12 pm W 5.1 6.0------------
2024-06-13 01:06 pmWSW 4.1 4.1------------
2024-06-13 01:00 pmWSW 2.9 4.1------ 59.2-----
2024-06-13 12:54 pm W 2.9 4.1------ 58.3-----
2024-06-13 12:48 pm W 4.1 4.1------ 58.3-----
2024-06-13 12:42 pm W 5.1 5.1------ 57.9-----
2024-06-13 12:36 pm W 5.1 7.0------ 57.9-----
2024-06-13 12:30 pm W 5.1 6.0------------
2024-06-13 12:24 pm W 5.1 6.0------------
2024-06-13 12:18 pmWNW 5.1 7.0------ 58.1-----
2024-06-13 12:12 pmWNW 6.0 7.0------ 57.7-----
2024-06-13 12:06 pmWNW 6.0 6.0------ 57.9-----
2024-06-13 12:00 pmWNW 5.1 7.0------ 57.6-----
2024-06-13 11:54 amWNW 5.1 6.0------ 57.2-----
2024-06-13 11:48 am W 5.1 6.0------------
2024-06-13 11:42 am W 5.1 6.0------------
2024-06-13 11:36 am W 6.0 8.0------------
2024-06-13 11:30 am W 7.0 8.9------------
2024-06-13 11:24 am W 7.0 8.0------------
2024-06-13 11:18 am W 7.0 8.0------ 55.8-----
2024-06-13 11:12 am W 7.0 8.0------ 55.6-----
2024-06-13 11:06 am W 7.0 8.0------ 55.4-----
2024-06-13 11:00 am W 7.0 8.9------------
2024-06-13 10:54 am W 8.0 8.9------------
2024-06-13 10:48 amWNW 8.0 8.9------------
2024-06-13 10:42 am W 7.0 8.0------------
2024-06-13 10:36 am W 7.0 7.0------------
2024-06-13 10:30 am--------- 54.7-----
2024-06-13 10:24 am--------- 54.5-----
2024-06-13 10:18 amWNW 6.0 8.0------ 54.5-----
2024-06-13 10:12 amWNW 7.0 8.0------ 54.3-----
2024-06-13 10:06 amWNW 6.0 7.0------ 54.1-----
2024-06-13 10:00 am--------- 54.0-----
2024-06-13 09:54 am--------- 53.8-----
2024-06-13 09:48 am W 8.0 8.0------ 53.8-----
2024-06-13 09:42 amWNW 7.0 8.0------ 53.6-----
2024-06-13 09:36 amWNW 7.0 8.0------ 53.4-----
2024-06-13 09:30 am--------- 53.6-----
2024-06-13 09:24 am--------- 53.6-----
2024-06-13 09:18 amWNW 8.0 8.9------------
2024-06-13 09:12 amWNW 8.0 8.9------------
2024-06-13 09:06 amWNW 8.0 8.9------------
2024-06-13 09:00 amWNW 7.0 8.0------ 52.7-----
2024-06-13 08:54 amWNW 7.0 8.0------ 52.5-----
2024-06-13 08:48 amWNW 6.0 6.0------------
2024-06-13 08:42 amWNW 6.0 8.0------------
2024-06-13 08:36 am W 6.0 6.0------------
2024-06-13 08:30 amWNW 5.1 6.0------------
2024-06-13 08:24 amWNW 5.1 6.0------------
2024-06-13 08:18 am NW 5.1 7.0------ 52.3-----
2024-06-13 08:12 amWNW 6.0 8.0------ 52.3-----
2024-06-13 08:06 amWNW 7.0 8.9------ 52.2-----
2024-06-13 08:00 am NW 8.0 9.9------ 52.3-----
2024-06-13 07:54 am NW 8.0 8.9------ 52.3-----
2024-06-13 07:48 amWNW 8.0 8.9------ 52.3-----
2024-06-13 07:42 am NW 6.0 8.0------ 52.5-----
2024-06-13 07:36 amWNW 6.0 7.0------ 52.2-----
2024-06-13 07:30 amWNW 5.1 6.0------------
2024-06-13 07:24 am NW 6.0 7.0------------
2024-06-13 07:18 am NW 5.1 7.0------ 52.0-----
2024-06-13 07:12 am NW 5.1 5.1------ 51.8-----
2024-06-13 07:06 amWNW 4.1 5.1------ 51.1-----
2024-06-13 07:00 amWNW 1.9 2.9------ 50.9-----
2024-06-13 06:54 amNNW 1.9 2.9------ 50.5-----
2024-06-13 06:48 am N 1.9 2.9------ 50.5-----
2024-06-13 06:42 amNNW 1.9 2.9------ 50.9-----
2024-06-13 06:36 amNNW 1.0 1.9------ 51.3-----
2024-06-13 06:30 am- 0.0 1.0------ 51.1-----
2024-06-13 06:24 am- 0.0 2.9------ 50.7-----
2024-06-13 06:18 am N 1.9 2.9------ 50.5-----
2024-06-13 06:12 am N 1.9 2.9------ 50.4-----
2024-06-13 06:06 amNNW 1.9 2.9------ 50.5-----
2024-06-13 06:00 am N 1.9 2.9------ 50.7-----
2024-06-13 05:54 am N 2.9 2.9------ 50.4-----
2024-06-13 05:48 amNNW 1.9 2.9------ 50.5-----
2024-06-13 05:42 amNNW 2.9 2.9------ 50.9-----
2024-06-13 05:36 am N 1.9 2.9------ 51.1-----
2024-06-13 05:30 amNNW 1.9 1.9------ 51.3-----
2024-06-13 05:24 amNNW 2.9 2.9------ 51.3-----
2024-06-13 05:18 am N 2.9 5.1------ 51.4-----
2024-06-13 05:12 amNNW 4.1 5.1------ 51.4-----
2024-06-13 05:06 am N 4.1 5.1------ 51.4-----
2024-06-13 05:00 amNNW 4.1 4.1------ 51.4-----
2024-06-13 04:54 amNNW 2.9 4.1------ 51.4-----
2024-06-13 04:48 amNNW 1.9 2.9------------
2024-06-13 04:42 amNNW 2.9 5.1------------
2024-06-13 04:36 amNNW 4.1 7.0------------
2024-06-13 04:30 amNNW 2.9 4.1------ 52.2-----
2024-06-13 04:24 amNNW 2.9 4.1------ 52.2-----
2024-06-13 04:18 amWNW 1.0 2.9------ 52.2-----
2024-06-13 04:12 am W 1.9 2.9------ 52.2-----
2024-06-13 04:06 amNNW 1.0 4.1------ 52.2-----
2024-06-13 04:00 amWNW 1.9 5.1------ 52.3-----
2024-06-13 03:54 amNNW 2.9 5.1------ 52.3-----
2024-06-13 03:48 amNNW 2.9 6.0------ 52.5-----
2024-06-13 03:42 am NW 4.1 5.1------ 52.7-----
2024-06-13 03:36 am NW 2.9 5.1------ 52.7-----
2024-06-13 03:30 amNNW 2.9 5.1------ 52.9-----
2024-06-13 03:24 am NW 2.9 5.1------ 53.1-----
2024-06-13 03:18 am NW 4.1 5.1------ 53.1-----
2024-06-13 03:12 am NW 4.1 6.0------ 53.1-----
2024-06-13 03:06 am NW 4.1 5.1------ 53.2-----
2024-06-13 03:00 am NW 4.1 7.0------ 53.2-----
2024-06-13 02:54 am NW 5.1 7.0------ 53.4-----
2024-06-13 02:48 amNNW 4.1 7.0------ 53.4-----
2024-06-13 02:42 am NW 5.1 8.0------ 53.4-----
2024-06-13 02:36 amNNW 4.1 8.9------ 53.6-----
2024-06-13 02:30 am NW 5.1 6.0------ 53.8-----
2024-06-13 02:24 amNNW 4.1 8.0------ 54.0-----
2024-06-13 02:18 am NW 5.1 9.9------ 54.0-----
2024-06-13 02:12 am N 5.1 8.0------ 54.0-----
2024-06-13 02:06 amNNW 5.1 8.0------ 54.1-----
2024-06-13 02:00 am N 5.1 8.9------ 54.1-----
2024-06-13 01:54 am N 6.0 8.0------ 54.3-----
2024-06-13 01:48 am N 5.1 8.0------ 54.3-----
2024-06-13 01:42 am N 4.1 7.0------ 54.5-----
2024-06-13 01:36 amNNW 4.1 8.0------ 54.5-----
2024-06-13 01:30 am N 1.9 6.0------ 54.7-----
2024-06-13 01:24 am N 2.9 7.0------ 54.9-----
2024-06-13 01:18 am NE 1.9 6.0------ 54.9-----
2024-06-13 01:12 amWNW 2.9 4.1------ 54.9-----
2024-06-13 01:06 am W 1.9 2.9------ 54.9-----
2024-06-13 01:00 amWNW 2.9 4.1------ 54.9-----
2024-06-13 12:54 am NW 4.1 5.1------ 54.9-----
2024-06-13 12:48 amWNW 4.1 5.1------ 55.2-----
2024-06-13 12:42 amNNW 1.9 5.1------ 55.4-----
2024-06-13 12:36 am NW 1.0 4.1------ 55.4-----
2024-06-13 12:30 am NW 1.9 5.1------ 55.8-----
2024-06-13 12:24 am N 2.9 5.1------ 55.9-----
2024-06-13 12:18 am N 2.9 7.0------ 55.9-----
2024-06-13 12:12 am N 4.1 6.0------ 56.1-----
2024-06-13 12:06 amNNE 4.1 6.0------ 56.1-----
2024-06-13 12:00 am N 5.1 7.0------ 56.1-----
2024-06-12 11:54 pm N 5.1 6.0------ 56.1-----
2024-06-12 11:48 pmNNW 5.1 7.0------------
2024-06-12 11:42 pm N 5.1 7.0------------
2024-06-12 11:36 pm N 5.1 8.9------------
2024-06-12 11:30 pm N 5.1 8.0------ 56.5-----
2024-06-12 11:24 pm N 5.1 8.0------ 56.5-----
2024-06-12 11:18 pm N 4.1 5.1------ 56.3-----
2024-06-12 11:12 pm N 6.0 8.0------ 56.3-----
2024-06-12 11:06 pmNNW 6.0 8.9------ 56.5-----
2024-06-12 11:00 pm N 8.0 9.9------------
2024-06-12 10:54 pm N 8.9 11.1------------
2024-06-12 10:48 pm--------- 56.7-----
2024-06-12 10:42 pm--------- 56.7-----
2024-06-12 10:36 pm--------- 56.8-----
2024-06-12 10:30 pm N 8.0 11.1------ 56.7-----
2024-06-12 10:24 pm N 8.9 12.0------ 56.8-----
2024-06-12 10:18 pm N 8.0 11.1------ 57.0-----
2024-06-12 10:12 pmNNE 8.0 12.0------ 57.4-----
2024-06-12 10:06 pm N 8.9 13.0------ 57.6-----
2024-06-12 10:00 pm--------- 57.7-----
2024-06-12 09:54 pm--------- 57.9-----